sensor_id;sensor_type;location;lat;lon;timestamp;pressure;altitude;pressure_sealevel;temperature;humidity
41515;BME280;27247;48.020;16.720;2022-11-23T00:01:57;98680.81;;;3.62;100.00
41515;BME280;27247;48.020;16.720;2022-11-23T00:06:07;98689.94;;;3.68;100.00
41515;BME280;27247;48.020;16.720;2022-11-23T00:10:17;98683.34;;;3.72;100.00
41515;BME280;27247;48.020;16.720;2022-11-23T00:14:28;98678.88;;;3.72;100.00
41515;BME280;27247;48.020;16.720;2022-11-23T00:18:38;98682.66;;;3.70;100.00
41515;BME280;27247;48.020;16.720;2022-11-23T00:22:48;98683.69;;;3.77;100.00
41515;BME280;27247;48.020;16.720;2022-11-23T00:26:59;98671.13;;;3.79;100.00
41515;BME280;27247;48.020;16.720;2022-11-23T00:31:14;98672.63;;;3.81;100.00
41515;BME280;27247;48.020;16.720;2022-11-23T00:35:24;98670.97;;;3.80;100.00
41515;BME280;27247;48.020;16.720;2022-11-23T00:39:34;98667.16;;;3.75;100.00
41515;BME280;27247;48.020;16.720;2022-11-23T00:43:45;98665.50;;;3.74;100.00
41515;BME280;27247;48.020;16.720;2022-11-23T00:47:56;98661.88;;;3.75;100.00
41515;BME280;27247;48.020;16.720;2022-11-23T00:52:06;98657.25;;;3.69;100.00
41515;BME280;27247;48.020;16.720;2022-11-23T00:56:17;98656.72;;;3.65;100.00
41515;BME280;27247;48.020;16.720;2022-11-23T01:00:27;98662.19;;;3.64;100.00
41515;BME280;27247;48.020;16.720;2022-11-23T01:04:38;98658.72;;;3.63;100.00
41515;BME280;27247;48.020;16.720;2022-11-23T01:08:54;98660.34;;;3.56;100.00
41515;BME280;27247;48.020;16.720;2022-11-23T01:13:05;98647.81;;;3.58;100.00
41515;BME280;27247;48.020;16.720;2022-11-23T01:17:15;98647.97;;;3.57;100.00
41515;BME280;27247;48.020;16.720;2022-11-23T01:21:27;98643.34;;;3.59;100.00
41515;BME280;27247;48.020;16.720;2022-11-23T01:25:37;98645.81;;;3.60;100.00
41515;BME280;27247;48.020;16.720;2022-11-23T01:29:48;98635.59;;;3.57;100.00
41515;BME280;27247;48.020;16.720;2022-11-23T01:34:00;98632.63;;;3.60;100.00
41515;BME280;27247;48.020;16.720;2022-11-23T01:38:11;98626.50;;;3.60;100.00
41515;BME280;27247;48.020;16.720;2022-11-23T01:42:21;98624.19;;;3.57;100.00
41515;BME280;27247;48.020;16.720;2022-11-23T01:46:31;98628.16;;;3.61;100.00
41515;BME280;27247;48.020;16.720;2022-11-23T01:50:44;98625.19;;;3.64;100.00
41515;BME280;27247;48.020;16.720;2022-11-23T01:54:57;98629.34;;;3.66;100.00
41515;BME280;27247;48.020;16.720;2022-11-23T01:59:10;98622.75;;;3.70;100.00
41515;BME280;27247;48.020;16.720;2022-11-23T02:03:22;98630.03;;;3.76;100.00
41515;BME280;27247;48.020;16.720;2022-11-23T02:07:33;98628.69;;;3.72;100.00
41515;BME280;27247;48.020;16.720;2022-11-23T02:11:44;98627.22;;;3.78;100.00
41515;BME280;27247;48.020;16.720;2022-11-23T02:15:56;98623.88;;;3.60;100.00
41515;BME280;27247;48.020;16.720;2022-11-23T02:20:12;98618.59;;;3.68;100.00
41515;BME280;27247;48.020;16.720;2022-11-23T02:24:30;98622.41;;;3.73;100.00
41515;BME280;27247;48.020;16.720;2022-11-23T02:28:46;98622.91;;;3.77;100.00
41515;BME280;27247;48.020;16.720;2022-11-23T02:32:57;98626.06;;;3.80;100.00
41515;BME280;27247;48.020;16.720;2022-11-23T02:37:08;98630.34;;;3.81;100.00
41515;BME280;27247;48.020;16.720;2022-11-23T02:41:18;98632.81;;;3.75;100.00
41515;BME280;27247;48.020;16.720;2022-11-23T02:49:48;98648.03;;;3.81;100.00
41515;BME280;27247;48.020;16.720;2022-11-23T02:53:58;98635.97;;;3.78;100.00
41515;BME280;27247;48.020;16.720;2022-11-23T02:58:09;98637.13;;;3.76;100.00
41515;BME280;27247;48.020;16.720;2022-11-23T03:02:19;98641.41;;;3.77;100.00
41515;BME280;27247;48.020;16.720;2022-11-23T03:06:30;98640.75;;;3.75;100.00
41515;BME280;27247;48.020;16.720;2022-11-23T03:10:40;98642.56;;;3.74;100.00
41515;BME280;27247;48.020;16.720;2022-11-23T03:14:50;98643.88;;;3.70;100.00
41515;BME280;27247;48.020;16.720;2022-11-23T03:19:01;98635.28;;;3.68;100.00
41515;BME280;27247;48.020;16.720;2022-11-23T03:23:11;98641.22;;;3.70;100.00
41515;BME280;27247;48.020;16.720;2022-11-23T03:27:22;98649.63;;;3.66;100.00
41515;BME280;27247;48.020;16.720;2022-11-23T03:31:33;98654.28;;;3.72;100.00
41515;BME280;27247;48.020;16.720;2022-11-23T03:39:56;98644.53;;;3.72;100.00
41515;BME280;27247;48.020;16.720;2022-11-23T03:44:06;98645.53;;;3.71;100.00
41515;BME280;27247;48.020;16.720;2022-11-23T03:48:17;98633.97;;;3.72;100.00
41515;BME280;27247;48.020;16.720;2022-11-23T03:52:27;98636.09;;;3.69;100.00
41515;BME280;27247;48.020;16.720;2022-11-23T03:56:37;98630.19;;;3.75;100.00
41515;BME280;27247;48.020;16.720;2022-11-23T04:00:48;98628.03;;;3.70;100.00
41515;BME280;27247;48.020;16.720;2022-11-23T04:04:58;98627.84;;;3.72;100.00
41515;BME280;27247;48.020;16.720;2022-11-23T04:09:11;98620.25;;;3.69;100.00
41515;BME280;27247;48.020;16.720;2022-11-23T04:13:22;98623.41;;;3.72;100.00
41515;BME280;27247;48.020;16.720;2022-11-23T04:17:32;98628.69;;;3.72;100.00
41515;BME280;27247;48.020;16.720;2022-11-23T04:21:43;98631.00;;;3.75;100.00
41515;BME280;27247;48.020;16.720;2022-11-23T04:25:53;98623.91;;;3.76;100.00
41515;BME280;27247;48.020;16.720;2022-11-23T04:30:04;98624.72;;;3.76;100.00
41515;BME280;27247;48.020;16.720;2022-11-23T04:34:14;98629.34;;;3.74;100.00
41515;BME280;27247;48.020;16.720;2022-11-23T04:38:24;98642.41;;;3.76;100.00
41515;BME280;27247;48.020;16.720;2022-11-23T04:42:35;98627.53;;;3.75;100.00
41515;BME280;27247;48.020;16.720;2022-11-23T04:46:46;98631.66;;;3.77;100.00
41515;BME280;27247;48.020;16.720;2022-11-23T04:50:56;98628.19;;;3.77;100.00
41515;BME280;27247;48.020;16.720;2022-11-23T04:55:07;98624.06;;;3.74;100.00
41515;BME280;27247;48.020;16.720;2022-11-23T04:59:17;98621.25;;;3.76;100.00
41515;BME280;27247;48.020;16.720;2022-11-23T05:03:28;98622.56;;;3.72;100.00
41515;BME280;27247;48.020;16.720;2022-11-23T05:07:40;98628.84;;;3.71;100.00
41515;BME280;27247;48.020;16.720;2022-11-23T05:11:50;98618.59;;;3.68;100.00
41515;BME280;27247;48.020;16.720;2022-11-23T05:16:00;98626.22;;;3.71;100.00
41515;BME280;27247;48.020;16.720;2022-11-23T05:20:11;98623.41;;;3.72;100.00
41515;BME280;27247;48.020;16.720;2022-11-23T05:24:21;98629.69;;;3.71;100.00
41515;BME280;27247;48.020;16.720;2022-11-23T05:28:32;98637.28;;;3.74;100.00
41515;BME280;27247;48.020;16.720;2022-11-23T05:32:42;98645.03;;;3.76;100.00
41515;BME280;27247;48.020;16.720;2022-11-23T05:36:52;98654.78;;;3.75;100.00
41515;BME280;27247;48.020;16.720;2022-11-23T05:41:03;98660.72;;;3.77;100.00
41515;BME280;27247;48.020;16.720;2022-11-23T05:45:13;98661.22;;;3.73;100.00
41515;BME280;27247;48.020;16.720;2022-11-23T05:49:23;98677.06;;;3.73;100.00
41515;BME280;27247;48.020;16.720;2022-11-23T05:53:34;98675.91;;;3.75;100.00
41515;BME280;27247;48.020;16.720;2022-11-23T05:57:44;98673.13;;;3.77;100.00
41515;BME280;27247;48.020;16.720;2022-11-23T06:01:54;98671.47;;;3.76;100.00
41515;BME280;27247;48.020;16.720;2022-11-23T06:06:05;98670.47;;;3.77;100.00
41515;BME280;27247;48.020;16.720;2022-11-23T06:10:15;98677.25;;;3.79;100.00
41515;BME280;27247;48.020;16.720;2022-11-23T06:14:26;98675.28;;;3.81;100.00
41515;BME280;27247;48.020;16.720;2022-11-23T06:18:36;98678.22;;;3.78;100.00
41515;BME280;27247;48.020;16.720;2022-11-23T06:22:51;98680.72;;;3.80;100.00
41515;BME280;27247;48.020;16.720;2022-11-23T06:27:02;98695.25;;;3.84;100.00
41515;BME280;27247;48.020;16.720;2022-11-23T06:31:13;98694.13;;;3.87;100.00
41515;BME280;27247;48.020;16.720;2022-11-23T06:35:24;98707.31;;;3.87;100.00
41515;BME280;27247;48.020;16.720;2022-11-23T06:39:34;98718.88;;;3.85;100.00
41515;BME280;27247;48.020;16.720;2022-11-23T06:43:46;98721.69;;;3.84;100.00
41515;BME280;27247;48.020;16.720;2022-11-23T06:47:56;98728.44;;;3.78;100.00
41515;BME280;27247;48.020;16.720;2022-11-23T06:52:09;98722.66;;;3.83;100.00
41515;BME280;27247;48.020;16.720;2022-11-23T06:56:19;98724.16;;;3.85;100.00
41515;BME280;27247;48.020;16.720;2022-11-23T07:00:29;98725.66;;;3.88;100.00
41515;BME280;27247;48.020;16.720;2022-11-23T07:04:40;98729.97;;;3.89;100.00
41515;BME280;27247;48.020;16.720;2022-11-23T07:08:53;98737.56;;;3.92;100.00
41515;BME280;27247;48.020;16.720;2022-11-23T07:13:05;98730.47;;;3.93;100.00
41515;BME280;27247;48.020;16.720;2022-11-23T07:17:16;98729.13;;;3.89;100.00
41515;BME280;27247;48.020;16.720;2022-11-23T07:21:26;98731.13;;;3.95;100.00
41515;BME280;27247;48.020;16.720;2022-11-23T07:25:37;98742.03;;;4.00;100.00
41515;BME280;27247;48.020;16.720;2022-11-23T07:29:48;98732.94;;;3.94;100.00
41515;BME280;27247;48.020;16.720;2022-11-23T07:33:58;98733.63;;;3.96;100.00
41515;BME280;27247;48.020;16.720;2022-11-23T07:38:08;98729.66;;;4.00;100.00
41515;BME280;27247;48.020;16.720;2022-11-23T07:42:19;98732.13;;;4.02;100.00
41515;BME280;27247;48.020;16.720;2022-11-23T07:46:29;98730.81;;;3.98;100.00
41515;BME280;27247;48.020;16.720;2022-11-23T07:50:43;98727.03;;;4.08;100.00
41515;BME280;27247;48.020;16.720;2022-11-23T07:54:53;98731.50;;;4.08;100.00
41515;BME280;27247;48.020;16.720;2022-11-23T07:59:03;98722.38;;;3.94;100.00
41515;BME280;27247;48.020;16.720;2022-11-23T08:03:14;98724.69;;;3.97;100.00
41515;BME280;27247;48.020;16.720;2022-11-23T08:07:24;98726.03;;;4.01;100.00
41515;BME280;27247;48.020;16.720;2022-11-23T08:11:34;98727.69;;;4.10;100.00
41515;BME280;27247;48.020;16.720;2022-11-23T08:15:46;98726.91;;;4.18;100.00
41515;BME280;27247;48.020;16.720;2022-11-23T08:19:56;98720.13;;;4.15;100.00
41515;BME280;27247;48.020;16.720;2022-11-23T08:24:06;98718.50;;;4.23;100.00
41515;BME280;27247;48.020;16.720;2022-11-23T08:28:18;98718.81;;;4.20;100.00
41515;BME280;27247;48.020;16.720;2022-11-23T08:32:29;98731.72;;;4.23;100.00
41515;BME280;27247;48.020;16.720;2022-11-23T08:36:39;98736.53;;;4.27;100.00
41515;BME280;27247;48.020;16.720;2022-11-23T08:40:49;98728.91;;;4.24;100.00
41515;BME280;27247;48.020;16.720;2022-11-23T08:45:00;98725.78;;;4.21;100.00
41515;BME280;27247;48.020;16.720;2022-11-23T08:49:12;98737.16;;;4.21;100.00
41515;BME280;27247;48.020;16.720;2022-11-23T08:53:22;98729.56;;;4.18;100.00
41515;BME280;27247;48.020;16.720;2022-11-23T08:57:33;98740.13;;;4.18;100.00
41515;BME280;27247;48.020;16.720;2022-11-23T09:01:44;98736.97;;;4.14;100.00
41515;BME280;27247;48.020;16.720;2022-11-23T09:05:58;98744.44;;;4.19;100.00
41515;BME280;27247;48.020;16.720;2022-11-23T09:10:09;98738.59;;;4.07;100.00
41515;BME280;27247;48.020;16.720;2022-11-23T09:14:19;98742.09;;;4.16;100.00
41515;BME280;27247;48.020;16.720;2022-11-23T09:18:31;98739.16;;;4.19;100.00
41515;BME280;27247;48.020;16.720;2022-11-23T09:22:53;98738.00;;;4.22;100.00
41515;BME280;27247;48.020;16.720;2022-11-23T09:27:04;98734.38;;;4.23;100.00
41515;BME280;27247;48.020;16.720;2022-11-23T09:31:14;98728.91;;;4.24;100.00
41515;BME280;27247;48.020;16.720;2022-11-23T09:35:25;98716.34;;;4.26;100.00
41515;BME280;27247;48.020;16.720;2022-11-23T09:39:35;98712.22;;;4.32;100.00
41515;BME280;27247;48.020;16.720;2022-11-23T09:43:56;98716.03;;;4.29;100.00
41515;BME280;27247;48.020;16.720;2022-11-23T09:52:47;98717.03;;;4.36;100.00
41515;BME280;27247;48.020;16.720;2022-11-23T09:56:58;98702.81;;;4.37;100.00
41515;BME280;27247;48.020;16.720;2022-11-23T10:01:15;98698.53;;;4.36;100.00
41515;BME280;27247;48.020;16.720;2022-11-23T10:05:29;98701.16;;;4.36;100.00
41515;BME280;27247;48.020;16.720;2022-11-23T10:09:45;98699.03;;;4.40;100.00
41515;BME280;27247;48.020;16.720;2022-11-23T10:14:26;98694.72;;;4.39;100.00
41515;BME280;27247;48.020;16.720;2022-11-23T10:18:54;98699.03;;;4.40;100.00
41515;BME280;27247;48.020;16.720;2022-11-23T10:23:16;98695.72;;;4.38;100.00
41515;BME280;27247;48.020;16.720;2022-11-23T10:27:28;98700.66;;;4.33;100.00
41515;BME280;27247;48.020;16.720;2022-11-23T10:31:44;98695.72;;;4.30;100.00
41515;BME280;27247;48.020;16.720;2022-11-23T10:35:54;98693.22;;;4.36;100.00
41515;BME280;27247;48.020;16.720;2022-11-23T10:44:38;98702.16;;;4.43;100.00
41515;BME280;27247;48.020;16.720;2022-11-23T10:48:52;98695.56;;;4.47;100.00
41515;BME280;27247;48.020;16.720;2022-11-23T10:53:21;98698.84;;;4.49;100.00
41515;BME280;27247;48.020;16.720;2022-11-23T10:57:33;98689.28;;;4.48;100.00
41515;BME280;27247;48.020;16.720;2022-11-23T11:02:17;98696.88;;;4.52;100.00
41515;BME280;27247;48.020;16.720;2022-11-23T11:06:31;98687.94;;;4.53;100.00
41515;BME280;27247;48.020;16.720;2022-11-23T11:10:48;98694.06;;;4.61;100.00
41515;BME280;27247;48.020;16.720;2022-11-23T11:23:38;98679.00;;;4.78;100.00
41515;BME280;27247;48.020;16.720;2022-11-23T11:27:50;98686.09;;;4.86;100.00
41515;BME280;27247;48.020;16.720;2022-11-23T11:32:05;98677.00;;;4.88;100.00
41515;BME280;27247;48.020;16.720;2022-11-23T11:36:20;98684.94;;;4.88;100.00
41515;BME280;27247;48.020;16.720;2022-11-23T11:40:49;98688.22;;;4.98;100.00
41515;BME280;27247;48.020;16.720;2022-11-23T11:45:03;98682.75;;;5.08;100.00
41515;BME280;27247;48.020;16.720;2022-11-23T11:49:22;98682.78;;;5.00;100.00
41515;BME280;27247;48.020;16.720;2022-11-23T11:58:16;98685.06;;;5.11;100.00
41515;BME280;27247;48.020;16.720;2022-11-23T12:02:30;98685.91;;;5.03;100.00
41515;BME280;27247;48.020;16.720;2022-11-23T12:07:03;98682.06;;;5.14;100.00
41515;BME280;27247;48.020;16.720;2022-11-23T12:11:14;98683.91;;;5.22;100.00
41515;BME280;27247;48.020;16.720;2022-11-23T12:15:33;98677.09;;;5.19;100.00
41515;BME280;27247;48.020;16.720;2022-11-23T12:20:00;98669.50;;;5.16;100.00
41515;BME280;27247;48.020;16.720;2022-11-23T12:24:41;98671.16;;;5.17;100.00
41515;BME280;27247;48.020;16.720;2022-11-23T12:47:12;98675.63;;;5.08;100.00
41515;BME280;27247;48.020;16.720;2022-11-23T12:51:40;98675.16;;;5.05;100.00
41515;BME280;27247;48.020;16.720;2022-11-23T13:00:17;98674.97;;;5.06;100.00
41515;BME280;27247;48.020;16.720;2022-11-23T13:22:34;98674.78;;;5.16;100.00
41515;BME280;27247;48.020;16.720;2022-11-23T13:31:29;98670.84;;;5.20;100.00
41515;BME280;27247;48.020;16.720;2022-11-23T13:44:16;98679.91;;;5.18;100.00
41515;BME280;27247;48.020;16.720;2022-11-23T13:48:28;98670.00;;;5.11;100.00
41515;BME280;27247;48.020;16.720;2022-11-23T13:52:47;98676.59;;;5.16;100.00
41515;BME280;27247;48.020;16.720;2022-11-23T13:57:01;98675.28;;;5.11;100.00
41515;BME280;27247;48.020;16.720;2022-11-23T14:10:35;98683.38;;;5.18;100.00
41515;BME280;27247;48.020;16.720;2022-11-23T14:14:59;98681.44;;;5.04;100.00
41515;BME280;27247;48.020;16.720;2022-11-23T14:19:31;98685.72;;;5.13;100.00
41515;BME280;27247;48.020;16.720;2022-11-23T14:28:21;98692.03;;;5.04;100.00
41515;BME280;27247;48.020;16.720;2022-11-23T14:37:50;98691.56;;;4.92;100.00
41515;BME280;27247;48.020;16.720;2022-11-23T14:42:18;98701.31;;;5.00;100.00
41515;BME280;27247;48.020;16.720;2022-11-23T14:46:30;98705.44;;;4.94;100.00
41515;BME280;27247;48.020;16.720;2022-11-23T14:50:40;98705.25;;;5.04;100.00
41515;BME280;27247;48.020;16.720;2022-11-23T14:54:54;98703.13;;;4.99;100.00
41515;BME280;27247;48.020;16.720;2022-11-23T14:59:09;98698.50;;;5.01;100.00
41515;BME280;27247;48.020;16.720;2022-11-23T15:03:26;98695.00;;;5.01;100.00
41515;BME280;27247;48.020;16.720;2022-11-23T15:07:43;98703.47;;;4.96;100.00
41515;BME280;27247;48.020;16.720;2022-11-23T15:12:39;98705.91;;;5.06;100.00
41515;BME280;27247;48.020;16.720;2022-11-23T15:16:50;98688.91;;;4.92;100.00
41515;BME280;27247;48.020;16.720;2022-11-23T15:21:03;98701.47;;;4.98;100.00
41515;BME280;27247;48.020;16.720;2022-11-23T15:25:15;98701.63;;;4.97;100.00
41515;BME280;27247;48.020;16.720;2022-11-23T15:29:56;98704.63;;;4.94;100.00
41515;BME280;27247;48.020;16.720;2022-11-23T15:34:13;98703.47;;;4.96;100.00
41515;BME280;27247;48.020;16.720;2022-11-23T15:38:25;98705.13;;;4.89;100.00
41515;BME280;27247;48.020;16.720;2022-11-23T15:42:36;98712.56;;;4.94;100.00
41515;BME280;27247;48.020;16.720;2022-11-23T15:46:47;98706.94;;;4.89;100.00
41515;BME280;27247;48.020;16.720;2022-11-23T15:55:12;98711.41;;;4.88;100.00
41515;BME280;27247;48.020;16.720;2022-11-23T15:59:57;98712.06;;;4.82;100.00
41515;BME280;27247;48.020;16.720;2022-11-23T16:04:28;98703.97;;;4.84;100.00
41515;BME280;27247;48.020;16.720;2022-11-23T16:08:39;98706.44;;;4.85;100.00
41515;BME280;27247;48.020;16.720;2022-11-23T16:13:00;98713.56;;;4.85;100.00
41515;BME280;27247;48.020;16.720;2022-11-23T16:17:18;98712.91;;;4.91;100.00
41515;BME280;27247;48.020;16.720;2022-11-23T16:21:29;98715.03;;;4.87;100.00
41515;BME280;27247;48.020;16.720;2022-11-23T16:25:42;98720.69;;;4.84;100.00
41515;BME280;27247;48.020;16.720;2022-11-23T16:29:53;98724.31;;;4.83;100.00
41515;BME280;27247;48.020;16.720;2022-11-23T16:34:17;98718.69;;;4.86;100.00
41515;BME280;27247;48.020;16.720;2022-11-23T16:38:28;98723.16;;;4.86;100.00
41515;BME280;27247;48.020;16.720;2022-11-23T16:42:39;98728.44;;;4.86;100.00
41515;BME280;27247;48.020;16.720;2022-11-23T16:46:51;98733.09;;;4.75;100.00
41515;BME280;27247;48.020;16.720;2022-11-23T16:51:01;98732.25;;;4.83;100.00
41515;BME280;27247;48.020;16.720;2022-11-23T16:55:12;98728.78;;;4.82;100.00
41515;BME280;27247;48.020;16.720;2022-11-23T16:59:24;98732.75;;;4.87;100.00
41515;BME280;27247;48.020;16.720;2022-11-23T17:03:35;98738.03;;;4.87;100.00
41515;BME280;27247;48.020;16.720;2022-11-23T17:07:50;98734.06;;;4.82;100.00
41515;BME280;27247;48.020;16.720;2022-11-23T17:12:01;98736.56;;;4.84;100.00
41515;BME280;27247;48.020;16.720;2022-11-23T17:16:17;98731.94;;;4.78;100.00
41515;BME280;27247;48.020;16.720;2022-11-23T17:20:28;98740.53;;;4.80;100.00
41515;BME280;27247;48.020;16.720;2022-11-23T17:24:39;98744.66;;;4.82;100.00
41515;BME280;27247;48.020;16.720;2022-11-23T17:28:49;98749.28;;;4.80;100.00
41515;BME280;27247;48.020;16.720;2022-11-23T17:33:01;98752.94;;;4.79;100.00
41515;BME280;27247;48.020;16.720;2022-11-23T17:37:18;98745.00;;;4.79;100.00
41515;BME280;27247;48.020;16.720;2022-11-23T17:41:30;98751.78;;;4.82;100.00
41515;BME280;27247;48.020;16.720;2022-11-23T17:45:42;98748.78;;;4.85;100.00
41515;BME280;27247;48.020;16.720;2022-11-23T17:49:56;98750.28;;;4.79;100.00
41515;BME280;27247;48.020;16.720;2022-11-23T17:54:07;98752.94;;;4.88;100.00
41515;BME280;27247;48.020;16.720;2022-11-23T17:58:18;98754.41;;;4.82;100.00
41515;BME280;27247;48.020;16.720;2022-11-23T18:02:28;98766.00;;;4.89;100.00
41515;BME280;27247;48.020;16.720;2022-11-23T18:06:39;98765.00;;;4.90;100.00
41515;BME280;27247;48.020;16.720;2022-11-23T18:10:51;98763.03;;;4.84;100.00
41515;BME280;27247;48.020;16.720;2022-11-23T18:15:03;98764.84;;;4.84;100.00
41515;BME280;27247;48.020;16.720;2022-11-23T18:19:14;98776.91;;;4.86;100.00
41515;BME280;27247;48.020;16.720;2022-11-23T18:23:25;98786.84;;;4.84;100.00
41515;BME280;27247;48.020;16.720;2022-11-23T18:27:38;98780.56;;;4.85;100.00
41515;BME280;27247;48.020;16.720;2022-11-23T18:31:49;98794.13;;;4.90;100.00
41515;BME280;27247;48.020;16.720;2022-11-23T18:35:59;98791.47;;;4.90;100.00
41515;BME280;27247;48.020;16.720;2022-11-23T18:40:13;98782.22;;;4.86;100.00
41515;BME280;27247;48.020;16.720;2022-11-23T18:44:23;98786.19;;;4.90;100.00
41515;BME280;27247;48.020;16.720;2022-11-23T18:48:36;98797.09;;;4.87;100.00
41515;BME280;27247;48.020;16.720;2022-11-23T18:52:47;98791.97;;;4.86;100.00
41515;BME280;27247;48.020;16.720;2022-11-23T18:56:58;98801.41;;;4.80;100.00
41515;BME280;27247;48.020;16.720;2022-11-23T19:01:19;98802.88;;;4.82;100.00
41515;BME280;27247;48.020;16.720;2022-11-23T19:05:32;98800.41;;;4.81;100.00
41515;BME280;27247;48.020;16.720;2022-11-23T19:09:43;98817.59;;;4.85;100.00
41515;BME280;27247;48.020;16.720;2022-11-23T19:13:56;98819.25;;;4.86;100.00
41515;BME280;27247;48.020;16.720;2022-11-23T19:18:07;98814.47;;;4.81;100.00
41515;BME280;27247;48.020;16.720;2022-11-23T19:22:18;98819.44;;;4.85;100.00
41515;BME280;27247;48.020;16.720;2022-11-23T19:26:29;98823.41;;;4.89;100.00
41515;BME280;27247;48.020;16.720;2022-11-23T19:30:40;98821.59;;;4.89;100.00
41515;BME280;27247;48.020;16.720;2022-11-23T19:34:51;98830.34;;;4.90;100.00
41515;BME280;27247;48.020;16.720;2022-11-23T19:39:05;98835.16;;;4.86;100.00
41515;BME280;27247;48.020;16.720;2022-11-23T19:43:17;98828.69;;;4.89;100.00
41515;BME280;27247;48.020;16.720;2022-11-23T19:47:28;98820.91;;;4.87;100.00
41515;BME280;27247;48.020;16.720;2022-11-23T19:51:40;98828.03;;;4.87;100.00
41515;BME280;27247;48.020;16.720;2022-11-23T19:55:51;98829.84;;;4.94;100.00
41515;BME280;27247;48.020;16.720;2022-11-23T20:00:02;98827.53;;;4.91;100.00
41515;BME280;27247;48.020;16.720;2022-11-23T20:04:14;98838.13;;;4.91;100.00
41515;BME280;27247;48.020;16.720;2022-11-23T20:08:25;98836.81;;;4.95;100.00
41515;BME280;27247;48.020;16.720;2022-11-23T20:12:36;98844.25;;;5.00;100.00
41515;BME280;27247;48.020;16.720;2022-11-23T20:16:48;98839.78;;;5.00;100.00
41515;BME280;27247;48.020;16.720;2022-11-23T20:20:59;98854.50;;;4.95;100.00
41515;BME280;27247;48.020;16.720;2022-11-23T20:25:10;98847.91;;;4.99;100.00
41515;BME280;27247;48.020;16.720;2022-11-23T20:29:21;98856.81;;;4.98;100.00
41515;BME280;27247;48.020;16.720;2022-11-23T20:33:32;98852.19;;;5.00;100.00
41515;BME280;27247;48.020;16.720;2022-11-23T20:37:43;98863.63;;;5.00;100.00
41515;BME280;27247;48.020;16.720;2022-11-23T20:41:53;98864.78;;;4.98;100.00
41515;BME280;27247;48.020;16.720;2022-11-23T20:46:04;98870.91;;;4.98;100.00
41515;BME280;27247;48.020;16.720;2022-11-23T20:50:15;98878.66;;;5.00;100.00
41515;BME280;27247;48.020;16.720;2022-11-23T20:54:26;98883.31;;;4.98;100.00
41515;BME280;27247;48.020;16.720;2022-11-23T20:58:37;98883.97;;;5.00;100.00
41515;BME280;27247;48.020;16.720;2022-11-23T21:02:51;98882.81;;;4.94;100.00
41515;BME280;27247;48.020;16.720;2022-11-23T21:07:02;98882.63;;;4.96;100.00
41515;BME280;27247;48.020;16.720;2022-11-23T21:11:24;98884.94;;;4.91;100.00
41515;BME280;27247;48.020;16.720;2022-11-23T21:15:53;98885.13;;;4.97;100.00
41515;BME280;27247;48.020;16.720;2022-11-23T21:20:04;98884.63;;;4.94;100.00
41515;BME280;27247;48.020;16.720;2022-11-23T21:24:14;98888.75;;;4.96;100.00
41515;BME280;27247;48.020;16.720;2022-11-23T21:28:25;98883.31;;;4.98;100.00
41515;BME280;27247;48.020;16.720;2022-11-23T21:32:35;98896.53;;;4.98;100.00
41515;BME280;27247;48.020;16.720;2022-11-23T21:36:46;98896.69;;;4.96;100.00
41515;BME280;27247;48.020;16.720;2022-11-23T21:40:57;98901.00;;;4.97;100.00
41515;BME280;27247;48.020;16.720;2022-11-23T21:45:07;98902.66;;;4.98;100.00
41515;BME280;27247;48.020;16.720;2022-11-23T21:49:18;98899.69;;;4.93;100.00
41515;BME280;27247;48.020;16.720;2022-11-23T21:53:28;98893.75;;;5.07;100.00
41515;BME280;27247;48.020;16.720;2022-11-23T21:57:39;98893.25;;;5.04;100.00
41515;BME280;27247;48.020;16.720;2022-11-23T22:01:49;98895.06;;;5.11;100.00
41515;BME280;27247;48.020;16.720;2022-11-23T22:06:00;98897.38;;;5.14;100.00
41515;BME280;27247;48.020;16.720;2022-11-23T22:10:10;98903.84;;;5.12;100.00
41515;BME280;27247;48.020;16.720;2022-11-23T22:14:20;98908.97;;;5.13;100.00
41515;BME280;27247;48.020;16.720;2022-11-23T22:18:31;98912.44;;;5.14;100.00
41515;BME280;27247;48.020;16.720;2022-11-23T22:22:41;98915.25;;;5.04;100.00
41515;BME280;27247;48.020;16.720;2022-11-23T22:26:51;98923.84;;;5.06;100.00
41515;BME280;27247;48.020;16.720;2022-11-23T22:31:03;98927.34;;;5.07;100.00
41515;BME280;27247;48.020;16.720;2022-11-23T22:35:14;98933.94;;;5.03;100.00
41515;BME280;27247;48.020;16.720;2022-11-23T22:39:24;98937.41;;;5.03;100.00
41515;BME280;27247;48.020;16.720;2022-11-23T22:43:34;98947.84;;;5.05;100.00
41515;BME280;27247;48.020;16.720;2022-11-23T22:47:45;98950.50;;;5.05;100.00
41515;BME280;27247;48.020;16.720;2022-11-23T22:51:56;98951.31;;;5.05;100.00
41515;BME280;27247;48.020;16.720;2022-11-23T22:56:10;98962.91;;;5.04;100.00
41515;BME280;27247;48.020;16.720;2022-11-23T23:00:20;98968.34;;;5.03;100.00
41515;BME280;27247;48.020;16.720;2022-11-23T23:04:31;98975.00;;;5.07;100.00
41515;BME280;27247;48.020;16.720;2022-11-23T23:08:42;98980.28;;;5.07;100.00
41515;BME280;27247;48.020;16.720;2022-11-23T23:12:53;98986.72;;;5.04;100.00
41515;BME280;27247;48.020;16.720;2022-11-23T23:17:03;98979.78;;;5.03;100.00
41515;BME280;27247;48.020;16.720;2022-11-23T23:21:16;98984.91;;;5.05;100.00
41515;BME280;27247;48.020;16.720;2022-11-23T23:25:27;98977.63;;;5.07;100.00
41515;BME280;27247;48.020;16.720;2022-11-23T23:29:37;98992.53;;;5.08;100.00
41515;BME280;27247;48.020;16.720;2022-11-23T23:33:48;98982.78;;;5.08;100.00
41515;BME280;27247;48.020;16.720;2022-11-23T23:37:58;98993.34;;;5.08;100.00
41515;BME280;27247;48.020;16.720;2022-11-23T23:42:08;99007.09;;;5.04;100.00
41515;BME280;27247;48.020;16.720;2022-11-23T23:46:19;99014.03;;;5.05;100.00
41515;BME280;27247;48.020;16.720;2022-11-23T23:50:29;99010.41;;;5.06;100.00